sensor_id;sensor_type;location;lat;lon;timestamp;temperature;humidity
66343;DHT22;53144;51.524;5.080;2022-08-03T00:01:40;18.87;88.90
66343;DHT22;53144;51.524;5.080;2022-08-03T00:04:07;18.76;89.03
66343;DHT22;53144;51.524;5.080;2022-08-03T00:06:33;18.58;89.36
66343;DHT22;53144;51.524;5.080;2022-08-03T00:08:59;18.43;89.80
66343;DHT22;53144;51.524;5.080;2022-08-03T00:11:24;18.33;90.31
66343;DHT22;53144;51.524;5.080;2022-08-03T00:13:50;18.29;90.59
66343;DHT22;53144;51.524;5.080;2022-08-03T00:16:16;18.21;90.45
66343;DHT22;53144;51.524;5.080;2022-08-03T00:18:41;18.11;90.89
66343;DHT22;53144;51.524;5.080;2022-08-03T00:21:07;18.11;90.96
66343;DHT22;53144;51.524;5.080;2022-08-03T00:23:33;18.16;90.85
66343;DHT22;53144;51.524;5.080;2022-08-03T00:25:59;18.17;90.79
66343;DHT22;53144;51.524;5.080;2022-08-03T00:28:25;18.20;90.67
66343;DHT22;53144;51.524;5.080;2022-08-03T00:30:50;18.20;90.70
66343;DHT22;53144;51.524;5.080;2022-08-03T00:33:16;18.11;90.79
66343;DHT22;53144;51.524;5.080;2022-08-03T00:35:41;18.10;91.14
66343;DHT22;53144;51.524;5.080;2022-08-03T00:38:07;17.94;91.18
66343;DHT22;53144;51.524;5.080;2022-08-03T00:40:33;17.97;91.34
66343;DHT22;53144;51.524;5.080;2022-08-03T00:43:04;17.90;92.05
66343;DHT22;53144;51.524;5.080;2022-08-03T00:45:37;17.93;91.91
66343;DHT22;53144;51.524;5.080;2022-08-03T00:48:04;17.85;92.37
66343;DHT22;53144;51.524;5.080;2022-08-03T00:50:35;17.81;92.73
66343;DHT22;53144;51.524;5.080;2022-08-03T00:53:02;17.81;93.08
66343;DHT22;53144;51.524;5.080;2022-08-03T00:55:29;17.81;93.39
66343;DHT22;53144;51.524;5.080;2022-08-03T00:57:55;17.82;93.52
66343;DHT22;53144;51.524;5.080;2022-08-03T01:00:26;17.82;93.13
66343;DHT22;53144;51.524;5.080;2022-08-03T01:02:52;17.79;93.02
66343;DHT22;53144;51.524;5.080;2022-08-03T01:05:21;17.81;92.90
66343;DHT22;53144;51.524;5.080;2022-08-03T01:08:13;17.81;92.66
66343;DHT22;53144;51.524;5.080;2022-08-03T01:16:02;17.90;93.66
66343;DHT22;53144;51.524;5.080;2022-08-03T01:21:15;17.93;93.59
66343;DHT22;53144;51.524;5.080;2022-08-03T01:23:58;17.94;93.22
66343;DHT22;53144;51.524;5.080;2022-08-03T01:32:25;17.87;92.36
66343;DHT22;53144;51.524;5.080;2022-08-03T01:35:02;17.73;92.52
66343;DHT22;53144;51.524;5.080;2022-08-03T01:37:50;17.71;92.72
66343;DHT22;53144;51.524;5.080;2022-08-03T01:40:19;17.72;92.61
66343;DHT22;53144;51.524;5.080;2022-08-03T01:42:46;17.66;92.48
66343;DHT22;53144;51.524;5.080;2022-08-03T01:45:13;17.65;92.93
66343;DHT22;53144;51.524;5.080;2022-08-03T01:47:44;17.56;92.86
66343;DHT22;53144;51.524;5.080;2022-08-03T01:50:11;17.51;93.02
66343;DHT22;53144;51.524;5.080;2022-08-03T01:52:39;17.42;93.29
66343;DHT22;53144;51.524;5.080;2022-08-03T01:55:06;17.42;93.31
66343;DHT22;53144;51.524;5.080;2022-08-03T01:57:34;17.44;93.38
66343;DHT22;53144;51.524;5.080;2022-08-03T02:00:02;17.41;93.42
66343;DHT22;53144;51.524;5.080;2022-08-03T02:02:28;17.42;93.29
66343;DHT22;53144;51.524;5.080;2022-08-03T02:04:56;17.45;93.48
66343;DHT22;53144;51.524;5.080;2022-08-03T02:07:23;17.45;93.57
66343;DHT22;53144;51.524;5.080;2022-08-03T02:09:51;17.44;93.93
66343;DHT22;53144;51.524;5.080;2022-08-03T02:12:17;17.38;93.66
66343;DHT22;53144;51.524;5.080;2022-08-03T02:14:44;17.39;93.72
66343;DHT22;53144;51.524;5.080;2022-08-03T02:17:11;17.34;93.37
66343;DHT22;53144;51.524;5.080;2022-08-03T02:19:37;17.35;93.50
66343;DHT22;53144;51.524;5.080;2022-08-03T02:22:04;17.27;93.40
66343;DHT22;53144;51.524;5.080;2022-08-03T02:24:32;17.34;94.41
66343;DHT22;53144;51.524;5.080;2022-08-03T02:26:58;17.28;94.06
66343;DHT22;53144;51.524;5.080;2022-08-03T02:29:28;17.20;93.26
66343;DHT22;53144;51.524;5.080;2022-08-03T02:31:57;17.11;93.82
66343;DHT22;53144;51.524;5.080;2022-08-03T02:34:26;17.14;93.74
66343;DHT22;53144;51.524;5.080;2022-08-03T02:36:55;17.17;93.94
66343;DHT22;53144;51.524;5.080;2022-08-03T02:39:25;17.18;93.99
66343;DHT22;53144;51.524;5.080;2022-08-03T02:41:55;17.28;94.68
66343;DHT22;53144;51.524;5.080;2022-08-03T02:44:27;17.41;95.07
66343;DHT22;53144;51.524;5.080;2022-08-03T02:46:59;17.53;95.60
66343;DHT22;53144;51.524;5.080;2022-08-03T02:49:26;17.53;95.05
66343;DHT22;53144;51.524;5.080;2022-08-03T02:51:53;17.56;94.79
66343;DHT22;53144;51.524;5.080;2022-08-03T02:54:21;17.44;93.78
66343;DHT22;53144;51.524;5.080;2022-08-03T02:56:47;17.28;93.55
66343;DHT22;53144;51.524;5.080;2022-08-03T02:59:13;17.28;93.52
66343;DHT22;53144;51.524;5.080;2022-08-03T03:01:41;17.30;93.71
66343;DHT22;53144;51.524;5.080;2022-08-03T03:04:06;17.34;94.77
66343;DHT22;53144;51.524;5.080;2022-08-03T03:06:33;17.36;94.56
66343;DHT22;53144;51.524;5.080;2022-08-03T03:09:00;17.42;94.65
66343;DHT22;53144;51.524;5.080;2022-08-03T03:11:26;17.44;94.77
66343;DHT22;53144;51.524;5.080;2022-08-03T03:13:52;17.44;94.06
66343;DHT22;53144;51.524;5.080;2022-08-03T03:16:21;17.36;93.41
66343;DHT22;53144;51.524;5.080;2022-08-03T03:18:46;17.35;93.10
66343;DHT22;53144;51.524;5.080;2022-08-03T03:21:16;17.27;92.85
66343;DHT22;53144;51.524;5.080;2022-08-03T03:23:43;17.18;92.88
66343;DHT22;53144;51.524;5.080;2022-08-03T03:26:08;17.10;94.26
66343;DHT22;53144;51.524;5.080;2022-08-03T03:28:35;16.97;93.20
66343;DHT22;53144;51.524;5.080;2022-08-03T03:31:03;16.87;93.44
66343;DHT22;53144;51.524;5.080;2022-08-03T03:33:28;16.81;93.46
66343;DHT22;53144;51.524;5.080;2022-08-03T03:35:54;16.85;93.51
66343;DHT22;53144;51.524;5.080;2022-08-03T03:38:20;16.81;94.27
66343;DHT22;53144;51.524;5.080;2022-08-03T03:40:45;16.84;94.56
66343;DHT22;53144;51.524;5.080;2022-08-03T03:43:11;16.81;94.34
66343;DHT22;53144;51.524;5.080;2022-08-03T03:45:39;16.81;93.99
66343;DHT22;53144;51.524;5.080;2022-08-03T03:48:05;16.80;94.03
66343;DHT22;53144;51.524;5.080;2022-08-03T03:50:32;16.79;94.14
66343;DHT22;53144;51.524;5.080;2022-08-03T03:52:58;16.70;93.87
66343;DHT22;53144;51.524;5.080;2022-08-03T03:55:23;16.57;93.94
66343;DHT22;53144;51.524;5.080;2022-08-03T03:57:49;16.55;93.98
66343;DHT22;53144;51.524;5.080;2022-08-03T04:00:16;16.52;94.13
66343;DHT22;53144;51.524;5.080;2022-08-03T04:02:42;16.48;94.41
66343;DHT22;53144;51.524;5.080;2022-08-03T04:05:08;16.39;94.55
66343;DHT22;53144;51.524;5.080;2022-08-03T04:07:58;16.41;94.64
66343;DHT22;53144;51.524;5.080;2022-08-03T04:10:46;16.45;94.81
66343;DHT22;53144;51.524;5.080;2022-08-03T04:13:41;16.51;94.60
66343;DHT22;53144;51.524;5.080;2022-08-03T04:16:10;16.70;95.57
66343;DHT22;53144;51.524;5.080;2022-08-03T04:18:37;16.77;95.71
66343;DHT22;53144;51.524;5.080;2022-08-03T04:21:07;16.91;95.50
66343;DHT22;53144;51.524;5.080;2022-08-03T04:23:36;17.04;95.68
66343;DHT22;53144;51.524;5.080;2022-08-03T04:26:07;17.08;95.41
66343;DHT22;53144;51.524;5.080;2022-08-03T04:28:34;17.18;95.06
66343;DHT22;53144;51.524;5.080;2022-08-03T04:31:02;17.25;94.89
66343;DHT22;53144;51.524;5.080;2022-08-03T04:33:28;17.31;94.58
66343;DHT22;53144;51.524;5.080;2022-08-03T04:35:57;17.35;94.30
66343;DHT22;53144;51.524;5.080;2022-08-03T04:38:24;17.39;94.09
66343;DHT22;53144;51.524;5.080;2022-08-03T04:40:51;17.44;93.95
66343;DHT22;53144;51.524;5.080;2022-08-03T04:43:18;17.51;93.74
66343;DHT22;53144;51.524;5.080;2022-08-03T04:45:46;17.55;93.52
66343;DHT22;53144;51.524;5.080;2022-08-03T04:48:14;17.63;93.31
66343;DHT22;53144;51.524;5.080;2022-08-03T04:50:40;17.69;93.06
66343;DHT22;53144;51.524;5.080;2022-08-03T04:53:06;17.75;92.73
66343;DHT22;53144;51.524;5.080;2022-08-03T04:55:33;17.78;92.76
66343;DHT22;53144;51.524;5.080;2022-08-03T04:57:59;17.76;92.74
66343;DHT22;53144;51.524;5.080;2022-08-03T05:00:25;17.83;92.68
66343;DHT22;53144;51.524;5.080;2022-08-03T05:02:51;17.89;92.45
66343;DHT22;53144;51.524;5.080;2022-08-03T05:05:17;17.87;92.32
66343;DHT22;53144;51.524;5.080;2022-08-03T05:07:43;17.89;92.26
66343;DHT22;53144;51.524;5.080;2022-08-03T05:10:09;17.94;92.25
66343;DHT22;53144;51.524;5.080;2022-08-03T05:12:35;17.99;92.25
66343;DHT22;53144;51.524;5.080;2022-08-03T05:15:01;18.02;92.15
66343;DHT22;53144;51.524;5.080;2022-08-03T05:17:27;18.13;91.97
66343;DHT22;53144;51.524;5.080;2022-08-03T05:19:53;18.11;92.01
66343;DHT22;53144;51.524;5.080;2022-08-03T05:22:19;18.17;91.88
66343;DHT22;53144;51.524;5.080;2022-08-03T05:24:45;18.31;91.57
66343;DHT22;53144;51.524;5.080;2022-08-03T05:27:10;18.36;91.59
66343;DHT22;53144;51.524;5.080;2022-08-03T05:29:42;18.41;91.46
66343;DHT22;53144;51.524;5.080;2022-08-03T05:32:07;18.47;91.41
66343;DHT22;53144;51.524;5.080;2022-08-03T05:34:33;18.54;91.16
66343;DHT22;53144;51.524;5.080;2022-08-03T05:36:58;18.60;91.35
66343;DHT22;53144;51.524;5.080;2022-08-03T05:39:24;18.69;90.60
66343;DHT22;53144;51.524;5.080;2022-08-03T05:41:49;18.75;90.91
66343;DHT22;53144;51.524;5.080;2022-08-03T05:44:14;18.82;90.11
66343;DHT22;53144;51.524;5.080;2022-08-03T05:46:40;18.88;89.98
66343;DHT22;53144;51.524;5.080;2022-08-03T05:49:05;18.99;89.65
66343;DHT22;53144;51.524;5.080;2022-08-03T05:51:30;18.99;89.59
66343;DHT22;53144;51.524;5.080;2022-08-03T05:53:56;19.08;89.88
66343;DHT22;53144;51.524;5.080;2022-08-03T05:56:23;19.13;89.61
66343;DHT22;53144;51.524;5.080;2022-08-03T05:58:51;19.26;89.33
66343;DHT22;53144;51.524;5.080;2022-08-03T06:01:18;19.31;89.01
66343;DHT22;53144;51.524;5.080;2022-08-03T06:03:46;19.43;88.42
66343;DHT22;53144;51.524;5.080;2022-08-03T06:06:12;19.63;87.62
66343;DHT22;53144;51.524;5.080;2022-08-03T06:08:38;19.63;87.60
66343;DHT22;53144;51.524;5.080;2022-08-03T06:11:04;19.71;87.72
66343;DHT22;53144;51.524;5.080;2022-08-03T06:13:29;19.74;87.88
66343;DHT22;53144;51.524;5.080;2022-08-03T06:15:54;19.73;87.82
66343;DHT22;53144;51.524;5.080;2022-08-03T06:18:20;19.87;87.27
66343;DHT22;53144;51.524;5.080;2022-08-03T06:20:45;20.01;86.37
66343;DHT22;53144;51.524;5.080;2022-08-03T06:23:10;20.08;86.29
66343;DHT22;53144;51.524;5.080;2022-08-03T06:25:36;20.09;86.27
66343;DHT22;53144;51.524;5.080;2022-08-03T06:28:01;20.16;85.98
66343;DHT22;53144;51.524;5.080;2022-08-03T06:30:28;20.19;86.10
66343;DHT22;53144;51.524;5.080;2022-08-03T06:32:53;20.26;86.14
66343;DHT22;53144;51.524;5.080;2022-08-03T06:35:19;20.37;86.06
66343;DHT22;53144;51.524;5.080;2022-08-03T06:37:49;20.47;86.16
66343;DHT22;53144;51.524;5.080;2022-08-03T06:40:20;20.55;85.48
66343;DHT22;53144;51.524;5.080;2022-08-03T06:42:57;20.74;84.58
66343;DHT22;53144;51.524;5.080;2022-08-03T06:45:23;20.83;84.49
66343;DHT22;53144;51.524;5.080;2022-08-03T06:48:05;21.11;83.58
66343;DHT22;53144;51.524;5.080;2022-08-03T06:50:32;21.17;82.39
66343;DHT22;53144;51.524;5.080;2022-08-03T06:52:58;21.24;82.30
66343;DHT22;53144;51.524;5.080;2022-08-03T06:55:23;21.39;81.15
66343;DHT22;53144;51.524;5.080;2022-08-03T06:57:49;21.39;81.77
66343;DHT22;53144;51.524;5.080;2022-08-03T07:00:14;21.55;80.10
66343;DHT22;53144;51.524;5.080;2022-08-03T07:02:40;21.55;80.16
66343;DHT22;53144;51.524;5.080;2022-08-03T07:05:07;21.67;80.11
66343;DHT22;53144;51.524;5.080;2022-08-03T07:07:32;21.78;79.69
66343;DHT22;53144;51.524;5.080;2022-08-03T07:09:58;21.83;78.51
66343;DHT22;53144;51.524;5.080;2022-08-03T07:12:27;21.97;79.15
66343;DHT22;53144;51.524;5.080;2022-08-03T07:14:54;21.93;79.10
66343;DHT22;53144;51.524;5.080;2022-08-03T07:17:19;21.96;77.82
66343;DHT22;53144;51.524;5.080;2022-08-03T07:19:45;22.00;79.16
66343;DHT22;53144;51.524;5.080;2022-08-03T07:22:10;22.18;77.58
66343;DHT22;53144;51.524;5.080;2022-08-03T07:24:36;22.29;77.70
66343;DHT22;53144;51.524;5.080;2022-08-03T07:27:01;22.41;76.43
66343;DHT22;53144;51.524;5.080;2022-08-03T07:29:27;22.43;76.06
66343;DHT22;53144;51.524;5.080;2022-08-03T07:31:53;22.44;76.69
66343;DHT22;53144;51.524;5.080;2022-08-03T07:34:18;22.43;76.96
66343;DHT22;53144;51.524;5.080;2022-08-03T07:36:43;22.48;76.92
66343;DHT22;53144;51.524;5.080;2022-08-03T07:39:09;22.57;75.44
66343;DHT22;53144;51.524;5.080;2022-08-03T07:41:34;22.62;76.01
66343;DHT22;53144;51.524;5.080;2022-08-03T07:44:00;22.71;74.68
66343;DHT22;53144;51.524;5.080;2022-08-03T07:46:25;22.75;76.16
66343;DHT22;53144;51.524;5.080;2022-08-03T07:48:51;22.72;75.33
66343;DHT22;53144;51.524;5.080;2022-08-03T07:51:17;22.87;75.19
66343;DHT22;53144;51.524;5.080;2022-08-03T07:53:42;22.95;74.75
66343;DHT22;53144;51.524;5.080;2022-08-03T07:56:08;23.05;74.81
66343;DHT22;53144;51.524;5.080;2022-08-03T07:58:34;23.30;73.28
66343;DHT22;53144;51.524;5.080;2022-08-03T08:01:00;23.31;73.05
66343;DHT22;53144;51.524;5.080;2022-08-03T08:03:25;23.42;73.51
66343;DHT22;53144;51.524;5.080;2022-08-03T08:05:50;23.42;72.32
66343;DHT22;53144;51.524;5.080;2022-08-03T08:08:16;23.40;71.77
66343;DHT22;53144;51.524;5.080;2022-08-03T08:10:41;23.50;72.27
66343;DHT22;53144;51.524;5.080;2022-08-03T08:13:07;23.46;72.86
66343;DHT22;53144;51.524;5.080;2022-08-03T08:15:32;23.60;73.76
66343;DHT22;53144;51.524;5.080;2022-08-03T08:17:59;23.73;72.00
66343;DHT22;53144;51.524;5.080;2022-08-03T08:20:28;23.89;71.28
66343;DHT22;53144;51.524;5.080;2022-08-03T08:22:58;23.98;70.95
66343;DHT22;53144;51.524;5.080;2022-08-03T08:25:24;23.97;71.13
66343;DHT22;53144;51.524;5.080;2022-08-03T08:27:50;23.88;71.56
66343;DHT22;53144;51.524;5.080;2022-08-03T08:30:17;24.02;71.06
66343;DHT22;53144;51.524;5.080;2022-08-03T08:32:44;24.14;70.93
66343;DHT22;53144;51.524;5.080;2022-08-03T08:35:12;24.12;71.13
66343;DHT22;53144;51.524;5.080;2022-08-03T08:37:38;24.24;69.48
66343;DHT22;53144;51.524;5.080;2022-08-03T08:40:05;24.29;68.49
66343;DHT22;53144;51.524;5.080;2022-08-03T08:42:31;24.33;70.53
66343;DHT22;53144;51.524;5.080;2022-08-03T08:44:59;24.43;70.25
66343;DHT22;53144;51.524;5.080;2022-08-03T08:47:25;24.62;67.59
66343;DHT22;53144;51.524;5.080;2022-08-03T08:49:53;24.65;66.84
66343;DHT22;53144;51.524;5.080;2022-08-03T08:52:24;24.62;67.67
66343;DHT22;53144;51.524;5.080;2022-08-03T08:55:04;24.72;66.63
66343;DHT22;53144;51.524;5.080;2022-08-03T08:57:33;24.80;65.83
66343;DHT22;53144;51.524;5.080;2022-08-03T09:00:00;24.91;65.60
66343;DHT22;53144;51.524;5.080;2022-08-03T09:02:29;24.96;66.06
66343;DHT22;53144;51.524;5.080;2022-08-03T09:04:55;25.13;65.40
66343;DHT22;53144;51.524;5.080;2022-08-03T09:07:22;25.31;65.18
66343;DHT22;53144;51.524;5.080;2022-08-03T09:09:47;25.33;64.66
66343;DHT22;53144;51.524;5.080;2022-08-03T09:12:13;25.39;63.97
66343;DHT22;53144;51.524;5.080;2022-08-03T09:14:38;25.39;63.75
66343;DHT22;53144;51.524;5.080;2022-08-03T09:17:04;25.59;63.80
66343;DHT22;53144;51.524;5.080;2022-08-03T09:19:30;25.69;64.27
66343;DHT22;53144;51.524;5.080;2022-08-03T09:22:13;25.71;60.96
66343;DHT22;53144;51.524;5.080;2022-08-03T09:25:00;25.75;60.82
66343;DHT22;53144;51.524;5.080;2022-08-03T09:27:27;25.82;61.64
66343;DHT22;53144;51.524;5.080;2022-08-03T09:29:53;25.97;60.18
66343;DHT22;53144;51.524;5.080;2022-08-03T09:32:20;25.99;60.60
66343;DHT22;53144;51.524;5.080;2022-08-03T09:34:47;26.19;59.16
66343;DHT22;53144;51.524;5.080;2022-08-03T09:37:15;26.27;59.27
66343;DHT22;53144;51.524;5.080;2022-08-03T09:39:41;26.39;59.75
66343;DHT22;53144;51.524;5.080;2022-08-03T09:42:14;26.68;59.53
66343;DHT22;53144;51.524;5.080;2022-08-03T09:44:45;26.68;58.46
66343;DHT22;53144;51.524;5.080;2022-08-03T09:47:12;26.75;58.67
66343;DHT22;53144;51.524;5.080;2022-08-03T09:49:39;26.84;57.79
66343;DHT22;53144;51.524;5.080;2022-08-03T09:52:14;26.85;55.99
66343;DHT22;53144;51.524;5.080;2022-08-03T09:54:41;27.19;55.80
66343;DHT22;53144;51.524;5.080;2022-08-03T09:57:06;27.13;55.33
66343;DHT22;53144;51.524;5.080;2022-08-03T09:59:33;27.23;56.23
66343;DHT22;53144;51.524;5.080;2022-08-03T10:01:59;27.32;55.70
66343;DHT22;53144;51.524;5.080;2022-08-03T10:04:26;27.39;54.75
66343;DHT22;53144;51.524;5.080;2022-08-03T10:07:06;27.67;54.13
66343;DHT22;53144;51.524;5.080;2022-08-03T10:09:32;27.68;55.36
66343;DHT22;53144;51.524;5.080;2022-08-03T10:12:06;27.94;55.63
66343;DHT22;53144;51.524;5.080;2022-08-03T10:14:32;28.32;53.33
66343;DHT22;53144;51.524;5.080;2022-08-03T10:16:58;28.80;52.05
66343;DHT22;53144;51.524;5.080;2022-08-03T10:19:23;29.04;50.02
66343;DHT22;53144;51.524;5.080;2022-08-03T10:21:54;29.17;51.84
66343;DHT22;53144;51.524;5.080;2022-08-03T10:24:24;29.11;52.03
66343;DHT22;53144;51.524;5.080;2022-08-03T10:26:52;29.48;51.40
66343;DHT22;53144;51.524;5.080;2022-08-03T10:29:21;30.56;47.54
66343;DHT22;53144;51.524;5.080;2022-08-03T10:31:51;31.18;46.10
66343;DHT22;53144;51.524;5.080;2022-08-03T10:34:23;30.98;47.70
66343;DHT22;53144;51.524;5.080;2022-08-03T10:36:51;31.47;45.43
66343;DHT22;53144;51.524;5.080;2022-08-03T10:39:21;31.18;47.50
66343;DHT22;53144;51.524;5.080;2022-08-03T10:41:49;31.59;45.88
66343;DHT22;53144;51.524;5.080;2022-08-03T10:44:20;31.98;43.65
66343;DHT22;53144;51.524;5.080;2022-08-03T10:46:47;32.18;43.36
66343;DHT22;53144;51.524;5.080;2022-08-03T10:49:18;31.46;47.73
66343;DHT22;53144;51.524;5.080;2022-08-03T10:51:45;31.94;43.87
66343;DHT22;53144;51.524;5.080;2022-08-03T10:56:59;32.92;42.77
66343;DHT22;53144;51.524;5.080;2022-08-03T11:02:15;33.34;40.84
66343;DHT22;53144;51.524;5.080;2022-08-03T11:04:42;33.40;41.77
66343;DHT22;53144;51.524;5.080;2022-08-03T11:09:48;33.34;43.95
66343;DHT22;53144;51.524;5.080;2022-08-03T11:12:30;33.13;41.84
66343;DHT22;53144;51.524;5.080;2022-08-03T11:14:59;33.78;41.60
66343;DHT22;53144;51.524;5.080;2022-08-03T11:17:24;34.22;40.72
66343;DHT22;53144;51.524;5.080;2022-08-03T11:19:51;34.01;40.18
66343;DHT22;53144;51.524;5.080;2022-08-03T11:22:17;32.41;43.07
66343;DHT22;53144;51.524;5.080;2022-08-03T11:30:08;31.98;44.63
66343;DHT22;53144;51.524;5.080;2022-08-03T11:40:48;32.52;45.08
66343;DHT22;53144;51.524;5.080;2022-08-03T11:46:05;34.08;40.53
66343;DHT22;53144;51.524;5.080;2022-08-03T11:48:35;34.66;40.84
66343;DHT22;53144;51.524;5.080;2022-08-03T11:51:03;33.34;44.16
66343;DHT22;53144;51.524;5.080;2022-08-03T11:53:29;33.16;43.98
66343;DHT22;53144;51.524;5.080;2022-08-03T11:55:58;34.16;40.53
66343;DHT22;53144;51.524;5.080;2022-08-03T11:58:24;32.85;44.46
66343;DHT22;53144;51.524;5.080;2022-08-03T12:00:50;33.24;42.79
66343;DHT22;53144;51.524;5.080;2022-08-03T12:03:18;32.71;45.61
66343;DHT22;53144;51.524;5.080;2022-08-03T12:05:48;32.34;45.98
66343;DHT22;53144;51.524;5.080;2022-08-03T12:08:34;33.92;42.01
66343;DHT22;53144;51.524;5.080;2022-08-03T12:11:02;34.55;40.55
66343;DHT22;53144;51.524;5.080;2022-08-03T12:13:44;34.42;42.39
66343;DHT22;53144;51.524;5.080;2022-08-03T12:16:23;32.93;42.58
66343;DHT22;53144;51.524;5.080;2022-08-03T12:19:00;33.02;43.66
66343;DHT22;53144;51.524;5.080;2022-08-03T12:21:26;34.09;41.47
66343;DHT22;53144;51.524;5.080;2022-08-03T12:23:56;35.17;38.88
66343;DHT22;53144;51.524;5.080;2022-08-03T12:26:24;34.33;42.76
66343;DHT22;53144;51.524;5.080;2022-08-03T12:28:50;34.11;40.97
66343;DHT22;53144;51.524;5.080;2022-08-03T12:31:15;34.35;40.98
66343;DHT22;53144;51.524;5.080;2022-08-03T12:33:59;32.62;44.41
66343;DHT22;53144;51.524;5.080;2022-08-03T12:36:27;33.46;42.68
66343;DHT22;53144;51.524;5.080;2022-08-03T12:39:05;34.04;41.67
66343;DHT22;53144;51.524;5.080;2022-08-03T12:41:33;34.66;40.78
66343;DHT22;53144;51.524;5.080;2022-08-03T12:44:00;33.51;42.73
66343;DHT22;53144;51.524;5.080;2022-08-03T12:46:35;34.02;42.61
66343;DHT22;53144;51.524;5.080;2022-08-03T12:49:08;34.16;42.67
66343;DHT22;53144;51.524;5.080;2022-08-03T12:54:07;34.60;41.20
66343;DHT22;53144;51.524;5.080;2022-08-03T12:56:33;34.67;40.28
66343;DHT22;53144;51.524;5.080;2022-08-03T12:58:59;34.18;42.80
66343;DHT22;53144;51.524;5.080;2022-08-03T13:01:24;34.49;40.85
66343;DHT22;53144;51.524;5.080;2022-08-03T13:03:52;34.77;42.04
66343;DHT22;53144;51.524;5.080;2022-08-03T13:08:45;32.06;45.77
66343;DHT22;53144;51.524;5.080;2022-08-03T13:13:43;32.95;44.25
66343;DHT22;53144;51.524;5.080;2022-08-03T13:16:10;34.49;40.57
66343;DHT22;53144;51.524;5.080;2022-08-03T13:18:35;34.71;40.51
66343;DHT22;53144;51.524;5.080;2022-08-03T13:21:00;34.01;42.28
66343;DHT22;53144;51.524;5.080;2022-08-03T13:23:26;32.71;43.15
66343;DHT22;53144;51.524;5.080;2022-08-03T13:25:51;32.58;45.49
66343;DHT22;53144;51.524;5.080;2022-08-03T13:28:17;33.19;43.20
66343;DHT22;53144;51.524;5.080;2022-08-03T13:30:42;31.83;45.81
66343;DHT22;53144;51.524;5.080;2022-08-03T13:33:07;31.53;47.38
66343;DHT22;53144;51.524;5.080;2022-08-03T13:35:33;31.54;46.16
66343;DHT22;53144;51.524;5.080;2022-08-03T13:37:58;32.03;44.83
66343;DHT22;53144;51.524;5.080;2022-08-03T13:40:24;33.12;42.41
66343;DHT22;53144;51.524;5.080;2022-08-03T13:42:49;33.94;42.46
66343;DHT22;53144;51.524;5.080;2022-08-03T13:45:14;32.31;44.01
66343;DHT22;53144;51.524;5.080;2022-08-03T13:47:40;31.36;45.94
66343;DHT22;53144;51.524;5.080;2022-08-03T13:50:05;31.19;50.15
66343;DHT22;53144;51.524;5.080;2022-08-03T13:52:32;32.08;45.22
66343;DHT22;53144;51.524;5.080;2022-08-03T13:54:58;33.14;43.02
66343;DHT22;53144;51.524;5.080;2022-08-03T13:57:24;32.25;45.97
66343;DHT22;53144;51.524;5.080;2022-08-03T13:59:49;31.57;45.73
66343;DHT22;53144;51.524;5.080;2022-08-03T14:02:15;32.24;45.06
66343;DHT22;53144;51.524;5.080;2022-08-03T14:04:40;32.55;44.81
66343;DHT22;53144;51.524;5.080;2022-08-03T14:07:05;31.49;45.63
66343;DHT22;53144;51.524;5.080;2022-08-03T14:09:31;31.35;48.41
66343;DHT22;53144;51.524;5.080;2022-08-03T14:11:56;31.76;45.53
66343;DHT22;53144;51.524;5.080;2022-08-03T14:14:21;31.72;46.76
66343;DHT22;53144;51.524;5.080;2022-08-03T14:16:47;31.81;46.20
66343;DHT22;53144;51.524;5.080;2022-08-03T14:19:12;32.00;45.01
66343;DHT22;53144;51.524;5.080;2022-08-03T14:21:39;31.86;44.67
66343;DHT22;53144;51.524;5.080;2022-08-03T14:24:05;31.53;44.79
66343;DHT22;53144;51.524;5.080;2022-08-03T14:26:30;31.45;45.66
66343;DHT22;53144;51.524;5.080;2022-08-03T14:28:56;31.50;45.63
66343;DHT22;53144;51.524;5.080;2022-08-03T14:31:21;31.63;46.53
66343;DHT22;53144;51.524;5.080;2022-08-03T14:33:47;31.73;45.45
66343;DHT22;53144;51.524;5.080;2022-08-03T14:36:13;31.60;45.97
66343;DHT22;53144;51.524;5.080;2022-08-03T14:38:38;31.45;45.60
66343;DHT22;53144;51.524;5.080;2022-08-03T14:41:04;31.50;45.78
66343;DHT22;53144;51.524;5.080;2022-08-03T14:43:29;31.65;44.83
66343;DHT22;53144;51.524;5.080;2022-08-03T14:45:54;31.73;44.50
66343;DHT22;53144;51.524;5.080;2022-08-03T14:48:21;31.33;46.46
66343;DHT22;53144;51.524;5.080;2022-08-03T14:50:47;31.11;46.38
66343;DHT22;53144;51.524;5.080;2022-08-03T14:53:12;31.29;44.76
66343;DHT22;53144;51.524;5.080;2022-08-03T14:55:38;31.32;45.66
66343;DHT22;53144;51.524;5.080;2022-08-03T14:58:03;31.36;45.56
66343;DHT22;53144;51.524;5.080;2022-08-03T15:00:34;31.43;45.29
66343;DHT22;53144;51.524;5.080;2022-08-03T15:03:00;31.42;44.98
66343;DHT22;53144;51.524;5.080;2022-08-03T15:05:25;31.29;45.51
66343;DHT22;53144;51.524;5.080;2022-08-03T15:07:51;31.05;46.57
66343;DHT22;53144;51.524;5.080;2022-08-03T15:10:16;31.02;46.28
66343;DHT22;53144;51.524;5.080;2022-08-03T15:12:42;30.88;45.79
66343;DHT22;53144;51.524;5.080;2022-08-03T15:15:08;31.11;45.75
66343;DHT22;53144;51.524;5.080;2022-08-03T15:17:33;31.07;46.36
66343;DHT22;53144;51.524;5.080;2022-08-03T15:19:59;31.11;45.87
66343;DHT22;53144;51.524;5.080;2022-08-03T15:22:24;30.99;45.21
66343;DHT22;53144;51.524;5.080;2022-08-03T15:24:49;30.88;46.90
66343;DHT22;53144;51.524;5.080;2022-08-03T15:27:15;30.63;47.96
66343;DHT22;53144;51.524;5.080;2022-08-03T15:29:40;30.71;46.58
66343;DHT22;53144;51.524;5.080;2022-08-03T15:32:06;30.78;46.71
66343;DHT22;53144;51.524;5.080;2022-08-03T15:34:31;30.85;46.51
66343;DHT22;53144;51.524;5.080;2022-08-03T15:36:57;30.89;46.72
66343;DHT22;53144;51.524;5.080;2022-08-03T15:39:22;30.74;46.44
66343;DHT22;53144;51.524;5.080;2022-08-03T15:41:48;30.63;46.84
66343;DHT22;53144;51.524;5.080;2022-08-03T15:44:17;30.78;46.25
66343;DHT22;53144;51.524;5.080;2022-08-03T15:46:43;30.81;46.57
66343;DHT22;53144;51.524;5.080;2022-08-03T15:49:08;30.92;46.43
66343;DHT22;53144;51.524;5.080;2022-08-03T15:51:33;30.98;46.53
66343;DHT22;53144;51.524;5.080;2022-08-03T15:53:59;30.99;47.27
66343;DHT22;53144;51.524;5.080;2022-08-03T15:56:24;30.98;46.77
66343;DHT22;53144;51.524;5.080;2022-08-03T15:58:50;31.11;45.39
66343;DHT22;53144;51.524;5.080;2022-08-03T16:01:15;30.94;45.70
66343;DHT22;53144;51.524;5.080;2022-08-03T16:03:41;30.88;46.30
66343;DHT22;53144;51.524;5.080;2022-08-03T16:06:06;30.87;45.44
66343;DHT22;53144;51.524;5.080;2022-08-03T16:08:32;30.77;45.67
66343;DHT22;53144;51.524;5.080;2022-08-03T16:10:58;30.77;46.04
66343;DHT22;53144;51.524;5.080;2022-08-03T16:13:24;30.78;46.59
66343;DHT22;53144;51.524;5.080;2022-08-03T16:15:50;31.01;45.03
66343;DHT22;53144;51.524;5.080;2022-08-03T16:18:16;30.95;45.39